Time,TemperatureF,DewpointF,PressureIn,WindDirection,WindDirectionDegrees,WindSpeedMPH,WindSpeedGustMPH,Humidity,HourlyPrecipIn,Conditions,Clouds,dailyrainin,SoftwareType,DateUTC
2013-03-06 00:00:00,30.3,27.7,30.11,NNE,22,1.0,0.0,90,0.00,,CLR,-99.99,VWS V14.01,2013-03-06 05:00:00,
2013-03-06 00:06:00,30.3,27.5,30.11,NNE,22,1.0,0.0,89,0.00,,CLR,-99.99,VWS V14.01,2013-03-06 05:06:00,
2013-03-06 00:10:00,30.2,27.4,30.11,NNE,22,1.0,0.0,89,0.00,,CLR,-99.99,VWS V14.01,2013-03-06 05:10:00,
2013-03-06 00:15:00,30.0,27.4,30.11,NNE,22,1.0,0.0,90,0.00,,CLR,-99.99,VWS V14.01,2013-03-06 05:15:00,
2013-03-06 00:20:00,30.0,27.4,30.11,NNE,22,1.0,0.0,90,0.00,,CLR,-99.99,VWS V14.01,2013-03-06 05:20:00,
2013-03-06 00:25:00,30.0,27.4,30.12,NNE,22,1.0,0.0,90,0.00,,CLR,-99.99,VWS V14.01,2013-03-06 05:25:00,
2013-03-06 00:30:00,30.0,27.4,30.12,NNE,22,1.0,0.0,90,0.00,,CLR,-99.99,VWS V14.01,2013-03-06 05:30:00,
2013-03-06 00:35:00,30.0,27.4,30.12,NNE,22,1.0,0.0,90,0.00,,CLR,-99.99,VWS V14.01,2013-03-06 05:35:00,
2013-03-06 00:40:00,30.0,27.4,30.12,NNE,22,1.0,0.0,90,0.00,,CLR,-99.99,VWS V14.01,2013-03-06 05:40:00,
2013-03-06 00:46:00,30.0,27.4,30.12,NNE,22,1.0,0.0,90,0.00,,CLR,-99.99,VWS V14.01,2013-03-06 05:46:00,
2013-03-06 00:51:00,30.0,27.4,30.12,NNE,22,1.0,0.0,90,0.00,,CLR,-99.99,VWS V14.01,2013-03-06 05:51:00,
2013-03-06 00:56:00,29.8,27.2,30.12,NNE,22,1.0,0.0,90,0.00,,CLR,-99.99,VWS V14.01,2013-03-06 05:56:00,
2013-03-06 01:02:00,29.8,27.2,30.13,NNE,22,1.0,0.0,90,0.00,,CLR,-99.99,VWS V14.01,2013-03-06 06:02:00,
2013-03-06 01:08:00,29.8,27.2,30.12,NNE,22,1.0,0.0,90,0.00,,CLR,-99.99,VWS V14.01,2013-03-06 06:08:00,
2013-03-06 01:13:00,29.8,27.2,30.12,NNE,22,1.0,0.0,90,0.00,,CLR,-99.99,VWS V14.01,2013-03-06 06:13:00,
2013-03-06 01:18:00,29.8,27.2,30.12,NNE,22,1.0,0.0,90,0.00,,CLR,-99.99,VWS V14.01,2013-03-06 06:18:00,
2013-03-06 01:24:00,30.0,27.7,30.13,NNE,22,1.0,0.0,91,0.00,,CLR,-99.99,VWS V14.01,2013-03-06 06:24:00,
2013-03-06 01:30:00,30.0,27.7,30.13,NNE,22,1.0,0.0,91,0.00,,CLR,-99.99,VWS V14.01,2013-03-06 06:30:00,
2013-03-06 01:35:00,30.0,27.7,30.13,NNE,22,1.0,0.0,91,0.00,,CLR,-99.99,VWS V14.01,2013-03-06 06:35:00,
2013-03-06 01:40:00,30.0,27.7,30.13,NNE,22,1.0,0.0,91,0.00,,CLR,-99.99,VWS V14.01,2013-03-06 06:40:00,
2013-03-06 01:45:00,30.0,27.7,30.13,NNE,22,1.0,0.0,91,0.00,,CLR,-99.99,VWS V14.01,2013-03-06 06:45:00,
2013-03-06 01:50:00,30.0,27.7,30.13,NNE,22,1.0,0.0,91,0.00,,CLR,-99.99,VWS V14.01,2013-03-06 06:50:00,
2013-03-06 01:55:00,30.0,27.7,30.13,NNE,22,1.0,0.0,91,0.00,,CLR,-99.99,VWS V14.01,2013-03-06 06:55:00,
2013-03-06 02:00:00,30.0,27.7,30.13,NNE,22,1.0,0.0,91,0.00,,CLR,-99.99,VWS V14.01,2013-03-06 07:00:00,
2013-03-06 02:05:00,30.0,27.7,30.13,NNE,22,1.0,0.0,91,0.00,,CLR,-99.99,VWS V14.01,2013-03-06 07:05:00,
2013-03-06 02:10:00,30.0,27.7,30.14,NNE,22,1.0,0.0,91,0.00,,CLR,-99.99,VWS V14.01,2013-03-06 07:10:00,
2013-03-06 02:15:00,30.0,27.7,30.14,NNE,22,1.0,0.0,91,0.00,,CLR,-99.99,VWS V14.01,2013-03-06 07:15:00,
2013-03-06 02:20:00,30.0,27.7,30.14,NNE,22,1.0,0.0,91,0.00,,CLR,-99.99,VWS V14.01,2013-03-06 07:20:00,
2013-03-06 02:25:00,30.0,27.7,30.14,NE,45,1.0,0.0,91,0.00,,CLR,-99.99,VWS V14.01,2013-03-06 07:25:00,
2013-03-06 02:30:00,29.8,27.5,30.13,NNE,22,1.0,0.0,91,0.00,,CLR,-99.99,VWS V14.01,2013-03-06 07:30:00,
2013-03-06 02:35:00,29.8,27.5,30.13,NNE,22,1.0,0.0,91,0.00,,CLR,-99.99,VWS V14.01,2013-03-06 07:35:00,
2013-03-06 02:40:00,29.8,27.5,30.14,NNE,22,1.0,0.0,91,0.00,,CLR,-99.99,VWS V14.01,2013-03-06 07:40:00,
2013-03-06 02:45:00,29.6,27.3,30.14,NNE,22,1.0,0.0,91,0.00,,CLR,-99.99,VWS V14.01,2013-03-06 07:45:00,
2013-03-06 02:50:00,29.6,27.3,30.14,NNE,22,1.0,0.0,91,0.00,,CLR,-99.99,VWS V14.01,2013-03-06 07:50:00,
2013-03-06 02:55:00,29.8,27.5,30.13,NNE,22,1.0,0.0,91,0.00,,CLR,-99.99,VWS V14.01,2013-03-06 07:55:00,
2013-03-06 03:00:00,29.6,27.3,30.13,NNE,22,1.0,0.0,91,0.00,,CLR,-99.99,VWS V14.01,2013-03-06 08:00:00,
2013-03-06 03:05:00,29.6,27.3,30.14,NNE,22,1.0,0.0,91,0.00,,CLR,-99.99,VWS V14.01,2013-03-06 08:05:00,
2013-03-06 03:10:00,29.4,27.1,30.14,NE,45,1.0,0.0,91,0.00,,CLR,-99.99,VWS V14.01,2013-03-06 08:10:00,
2013-03-06 03:15:00,29.4,27.1,30.14,NNE,22,1.0,0.0,91,0.00,,CLR,-99.99,VWS V14.01,2013-03-06 08:15:00,
2013-03-06 03:20:00,29.4,27.1,30.14,NNE,22,1.0,0.0,91,0.00,,CLR,-99.99,VWS V14.01,2013-03-06 08:20:00,
2013-03-06 03:25:00,29.4,27.4,30.14,NNE,22,1.0,0.0,92,0.00,,CLR,-99.99,VWS V14.01,2013-03-06 08:25:00,
2013-03-06 03:30:00,29.6,27.6,30.14,NE,45,1.0,0.0,92,0.00,,CLR,-99.99,VWS V14.01,2013-03-06 08:30:00,
2013-03-06 03:35:00,29.4,27.4,30.14,NE,45,1.0,0.0,92,0.00,,CLR,-99.99,VWS V14.01,2013-03-06 08:35:00,
2013-03-06 03:40:00,29.3,27.3,30.14,NNE,22,1.0,0.0,92,0.00,,CLR,-99.99,VWS V14.01,2013-03-06 08:40:00,
2013-03-06 03:45:00,29.1,27.1,30.14,NNE,22,1.0,0.0,92,0.00,,CLR,-99.99,VWS V14.01,2013-03-06 08:45:00,
2013-03-06 03:50:00,29.1,27.1,30.14,NNE,22,1.0,0.0,92,0.00,,CLR,-99.99,VWS V14.01,2013-03-06 08:50:00,
2013-03-06 03:55:00,28.9,26.9,30.14,NNE,22,1.0,0.0,92,0.00,,CLR,-99.99,VWS V14.01,2013-03-06 08:55:00,
2013-03-06 04:00:00,28.9,26.9,30.14,NNE,22,1.0,0.0,92,0.00,,CLR,-99.99,VWS V14.01,2013-03-06 09:00:00,
2013-03-06 04:05:00,28.7,26.7,30.14,NNE,22,1.0,0.0,92,0.00,,CLR,-99.99,VWS V14.01,2013-03-06 09:05:00,
2013-03-06 04:10:00,28.7,26.7,30.14,NNE,22,1.0,0.0,92,0.00,,CLR,-99.99,VWS V14.01,2013-03-06 09:10:00,
2013-03-06 04:15:00,28.7,26.7,30.14,NNE,22,1.0,0.0,92,0.00,,CLR,-99.99,VWS V14.01,2013-03-06 09:15:00,
2013-03-06 04:20:00,28.7,26.7,30.14,NNE,22,1.0,0.0,92,0.00,,CLR,-99.99,VWS V14.01,2013-03-06 09:20:00,
2013-03-06 04:25:00,28.9,26.9,30.14,NNE,22,1.0,0.0,92,0.00,,CLR,-99.99,VWS V14.01,2013-03-06 09:25:00,
2013-03-06 04:30:00,28.9,26.9,30.14,NNE,22,1.0,0.0,92,0.00,,CLR,-99.99,VWS V14.01,2013-03-06 09:30:00,
2013-03-06 04:35:00,28.9,26.9,30.14,NNE,22,1.0,0.0,92,0.00,,CLR,-99.99,VWS V14.01,2013-03-06 09:35:00,
2013-03-06 04:40:00,28.7,26.7,30.14,NE,45,1.0,0.0,92,0.00,,CLR,-99.99,VWS V14.01,2013-03-06 09:40:00,
2013-03-06 04:45:00,28.5,26.5,30.14,NNE,22,1.0,0.0,92,0.00,,CLR,-99.99,VWS V14.01,2013-03-06 09:45:00,
2013-03-06 04:50:00,28.7,26.7,30.14,NNE,22,1.0,0.0,92,0.00,,CLR,-99.99,VWS V14.01,2013-03-06 09:50:00,
2013-03-06 04:55:00,29.1,27.1,30.14,NE,45,1.0,0.0,92,0.00,,CLR,-99.99,VWS V14.01,2013-03-06 09:55:00,
2013-03-06 05:01:00,29.1,27.1,30.14,NE,45,1.0,0.0,92,0.00,,CLR,-99.99,VWS V14.01,2013-03-06 10:01:00,
2013-03-06 05:06:00,29.3,27.0,30.14,NE,45,1.0,0.0,91,0.00,,CLR,-99.99,VWS V14.01,2013-03-06 10:06:00,
2013-03-06 05:11:00,29.3,27.0,30.14,NE,45,1.0,0.0,91,0.00,,CLR,-99.99,VWS V14.01,2013-03-06 10:11:00,
2013-03-06 05:16:00,29.4,26.8,30.14,NE,45,1.0,0.0,90,0.00,,CLR,-99.99,VWS V14.01,2013-03-06 10:16:00,
2013-03-06 05:22:00,29.4,26.8,30.14,ENE,68,1.0,0.0,90,0.00,,CLR,-99.99,VWS V14.01,2013-03-06 10:22:00,
2013-03-06 05:28:00,29.6,27.0,30.14,ENE,68,1.0,0.0,90,0.00,,CLR,-99.99,VWS V14.01,2013-03-06 10:28:00,
2013-03-06 05:34:00,29.8,27.2,30.15,ENE,68,1.0,0.0,90,0.00,,CLR,-99.99,VWS V14.01,2013-03-06 10:34:00,
2013-03-06 05:39:00,29.8,27.2,30.15,NE,45,1.0,0.0,90,0.00,,CLR,-99.99,VWS V14.01,2013-03-06 10:39:00,
2013-03-06 05:45:00,29.8,27.2,30.15,NE,45,1.0,0.0,90,0.00,,CLR,-99.99,VWS V14.01,2013-03-06 10:45:00,
2013-03-06 05:50:00,29.8,27.2,30.15,NE,45,1.0,0.0,90,0.00,,CLR,-99.99,VWS V14.01,2013-03-06 10:50:00,
2013-03-06 05:55:00,29.8,27.2,30.15,NE,45,1.0,0.0,90,0.00,,CLR,-99.99,VWS V14.01,2013-03-06 10:55:00,
2013-03-06 06:00:00,30.0,27.4,30.16,NE,45,1.0,0.0,90,0.00,,CLR,-99.99,VWS V14.01,2013-03-06 11:00:00,
2013-03-06 06:05:00,30.0,27.4,30.16,NE,45,1.0,0.0,90,0.00,,CLR,-99.99,VWS V14.01,2013-03-06 11:05:00,
2013-03-06 06:10:00,31.1,27.7,30.15,NE,45,1.0,0.0,87,0.00,,CLR,-99.99,VWS V14.01,2013-03-06 11:10:00,
2013-03-06 06:15:00,31.2,27.5,30.15,ENE,68,1.0,0.0,86,0.00,,CLR,-99.99,VWS V14.01,2013-03-06 11:15:00,
2013-03-06 06:20:00,31.1,27.4,30.15,NE,45,1.0,0.0,86,0.00,,CLR,-99.99,VWS V14.01,2013-03-06 11:20:00,
2013-03-06 06:25:00,30.7,27.0,30.15,NE,45,1.0,0.0,86,0.00,,CLR,-99.99,VWS V14.01,2013-03-06 11:25:00,
2013-03-06 06:31:00,30.7,27.0,30.15,NNE,22,1.0,0.0,86,0.00,,CLR,-99.99,VWS V14.01,2013-03-06 11:31:00,
2013-03-06 06:36:00,30.9,27.2,30.15,NNE,22,1.0,0.0,86,0.00,,CLR,-99.99,VWS V14.01,2013-03-06 11:36:00,
2013-03-06 06:42:00,31.1,27.7,30.15,NNE,22,1.0,0.0,87,0.00,,CLR,-99.99,VWS V14.01,2013-03-06 11:42:00,
2013-03-06 06:47:00,31.2,27.5,30.16,NNE,22,1.0,0.0,86,0.00,,CLR,-99.99,VWS V14.01,2013-03-06 11:47:00,
2013-03-06 06:52:00,31.6,27.9,30.17,NNE,22,1.0,0.0,86,0.00,,CLR,-99.99,VWS V14.01,2013-03-06 11:52:00,
2013-03-06 06:58:00,31.8,27.8,30.17,NNE,22,1.0,0.0,85,0.00,,CLR,-99.99,VWS V14.01,2013-03-06 11:58:00,
2013-03-06 07:04:00,31.8,27.8,30.17,NE,45,1.0,0.0,85,0.00,,CLR,-99.99,VWS V14.01,2013-03-06 12:04:00,
2013-03-06 07:10:00,31.8,27.5,30.17,NE,45,1.0,0.0,84,0.00,,CLR,-99.99,VWS V14.01,2013-03-06 12:10:00,
2013-03-06 07:15:00,32.5,27.9,30.17,NE,45,1.0,0.0,83,0.00,,CLR,-99.99,VWS V14.01,2013-03-06 12:15:00,
2013-03-06 07:20:00,32.7,27.8,30.17,NNE,22,1.0,0.0,82,0.00,,CLR,-99.99,VWS V14.01,2013-03-06 12:20:00,
2013-03-06 07:25:00,32.9,28.0,30.17,NE,45,1.0,0.0,82,0.00,,CLR,-99.99,VWS V14.01,2013-03-06 12:25:00,
2013-03-06 07:30:00,33.2,28.3,30.18,ESE,112,1.0,0.0,82,0.00,,CLR,-99.99,VWS V14.01,2013-03-06 12:30:00,
2013-03-06 07:35:00,33.2,28.0,30.18,ENE,68,1.0,0.0,81,0.00,,CLR,-99.99,VWS V14.01,2013-03-06 12:35:00,
2013-03-06 07:41:00,33.6,28.1,30.18,ENE,68,1.0,0.0,80,0.00,,CLR,-99.99,VWS V14.01,2013-03-06 12:41:00,
2013-03-06 07:47:00,33.2,27.4,30.18,ENE,68,1.0,0.0,79,0.00,,CLR,-99.99,VWS V14.01,2013-03-06 12:47:00,
2013-03-06 07:52:00,33.4,27.6,30.18,ENE,68,1.0,0.0,79,0.00,,CLR,-99.99,VWS V14.01,2013-03-06 12:52:00,
2013-03-06 07:58:00,33.9,28.1,30.18,ENE,68,1.0,0.0,79,0.00,,CLR,-99.99,VWS V14.01,2013-03-06 12:58:00,
2013-03-06 08:04:00,34.3,28.5,30.19,ENE,68,1.0,0.0,79,0.00,,CLR,-99.99,VWS V14.01,2013-03-06 13:04:00,
2013-03-06 08:10:00,34.3,28.2,30.19,NE,45,1.0,0.0,78,0.00,,CLR,-99.99,VWS V14.01,2013-03-06 13:10:00,
2013-03-06 08:15:00,34.3,27.9,30.19,ENE,68,1.0,0.0,77,0.00,,CLR,-99.99,VWS V14.01,2013-03-06 13:15:00,
2013-03-06 08:20:00,34.3,27.9,30.19,ENE,68,1.0,0.0,77,0.00,,CLR,-99.99,VWS V14.01,2013-03-06 13:20:00,
2013-03-06 08:25:00,34.5,27.7,30.19,ENE,68,1.0,0.0,76,0.00,,CLR,-99.99,VWS V14.01,2013-03-06 13:25:00,
2013-03-06 08:30:00,34.7,27.6,30.19,NE,45,1.0,0.0,75,0.00,,CLR,-99.99,VWS V14.01,2013-03-06 13:30:00,
2013-03-06 08:35:00,35.2,28.1,30.19,ENE,68,1.0,0.0,75,0.00,,CLR,-99.99,VWS V14.01,2013-03-06 13:35:00,
2013-03-06 08:41:00,34.8,27.0,30.19,NE,45,1.0,0.0,73,0.00,,CLR,-99.99,VWS V14.01,2013-03-06 13:41:00,
2013-03-06 08:46:00,34.8,26.7,30.19,ESE,112,1.0,0.0,72,0.00,,CLR,-99.99,VWS V14.01,2013-03-06 13:46:00,
2013-03-06 08:51:00,34.8,26.4,30.20,NE,45,1.0,0.0,71,0.00,,CLR,-99.99,VWS V14.01,2013-03-06 13:51:00,
2013-03-06 08:56:00,34.8,26.7,30.20,ENE,68,1.0,0.0,72,0.00,,CLR,-99.99,VWS V14.01,2013-03-06 13:56:00,
2013-03-06 09:01:00,35.2,26.8,30.20,East,90,1.0,0.0,71,0.00,,CLR,-99.99,VWS V14.01,2013-03-06 14:01:00,
2013-03-06 09:06:00,36.5,27.7,30.20,ENE,68,1.0,0.0,70,0.00,,CLR,-99.99,VWS V14.01,2013-03-06 14:06:00,
2013-03-06 09:11:00,36.5,27.0,30.20,NE,45,1.0,0.0,68,0.00,,CLR,-99.99,VWS V14.01,2013-03-06 14:11:00,
2013-03-06 09:16:00,37.2,28.0,30.19,ESE,112,1.0,0.0,69,0.00,,CLR,-99.99,VWS V14.01,2013-03-06 14:16:00,
2013-03-06 09:22:00,37.7,28.1,30.19,SE,135,1.0,0.0,68,0.00,,CLR,-99.99,VWS V14.01,2013-03-06 14:22:00,
2013-03-06 09:28:00,38.3,28.3,30.19,ENE,68,1.0,0.0,67,0.00,,CLR,-99.99,VWS V14.01,2013-03-06 14:28:00,
2013-03-06 09:33:00,38.4,28.0,30.20,ENE,68,1.0,0.0,66,0.00,,CLR,-99.99,VWS V14.01,2013-03-06 14:33:00,
2013-03-06 09:39:00,38.4,27.7,30.20,East,90,1.0,0.0,65,0.00,,CLR,-99.99,VWS V14.01,2013-03-06 14:39:00,
2013-03-06 09:44:00,39.3,28.2,30.20,NE,45,1.0,0.0,64,0.00,,CLR,-99.99,VWS V14.01,2013-03-06 14:44:00,
2013-03-06 09:50:00,40.6,29.8,30.20,ESE,112,1.0,0.0,65,0.00,,CLR,-99.99,VWS V14.01,2013-03-06 14:50:00,
2013-03-06 09:55:00,40.1,27.8,30.20,ESE,112,1.0,0.0,61,0.00,,CLR,-99.99,VWS V14.01,2013-03-06 14:55:00,
2013-03-06 10:00:00,39.7,27.8,30.20,East,90,1.0,0.0,62,0.00,,CLR,-99.99,VWS V14.01,2013-03-06 15:00:00,
2013-03-06 10:06:00,39.3,27.0,30.20,ENE,68,1.0,0.0,61,0.00,,CLR,-99.99,VWS V14.01,2013-03-06 15:06:00,
2013-03-06 10:12:00,39.9,28.3,30.20,ESE,112,1.0,0.0,63,0.00,,CLR,-99.99,VWS V14.01,2013-03-06 15:12:00,
2013-03-06 10:17:00,39.9,28.3,30.20,SE,135,1.0,0.0,63,0.00,,CLR,-99.99,VWS V14.01,2013-03-06 15:17:00,
2013-03-06 10:23:00,39.5,28.0,30.20,East,90,1.0,0.0,63,0.00,,CLR,-99.99,VWS V14.01,2013-03-06 15:23:00,
2013-03-06 10:28:00,39.3,27.4,30.21,East,90,1.0,0.0,62,0.00,,CLR,-99.99,VWS V14.01,2013-03-06 15:28:00,
2013-03-06 10:34:00,39.0,27.9,30.21,East,90,1.0,0.0,64,0.00,,CLR,-99.99,VWS V14.01,2013-03-06 15:34:00,
2013-03-06 10:40:00,39.9,28.0,30.21,ESE,112,1.0,0.0,62,0.00,,CLR,-99.99,VWS V14.01,2013-03-06 15:40:00,
2013-03-06 10:45:00,39.3,27.4,30.22,ESE,112,1.0,0.0,62,0.00,,CLR,-99.99,VWS V14.01,2013-03-06 15:45:00,
2013-03-06 10:50:00,38.8,26.9,30.22,East,90,1.0,0.0,62,0.00,,CLR,-99.99,VWS V14.01,2013-03-06 15:50:00,
2013-03-06 10:55:00,39.5,28.0,30.22,ESE,112,1.0,0.0,63,0.00,,CLR,-99.99,VWS V14.01,2013-03-06 15:55:00,
2013-03-06 11:00:00,41.1,27.9,30.22,ENE,68,1.0,0.0,59,0.00,,CLR,-99.99,VWS V14.01,2013-03-06 16:00:00,
2013-03-06 11:05:00,39.9,26.3,30.21,SE,135,1.0,0.0,58,0.00,,CLR,-99.99,VWS V14.01,2013-03-06 16:05:00,
2013-03-06 11:11:00,39.7,26.1,30.21,NNE,22,1.0,0.0,58,0.00,,CLR,-99.99,VWS V14.01,2013-03-06 16:11:00,
2013-03-06 11:16:00,39.7,25.7,30.21,NE,45,1.0,0.0,57,0.00,,CLR,-99.99,VWS V14.01,2013-03-06 16:16:00,
2013-03-06 11:21:00,39.3,25.4,30.21,East,90,1.0,0.0,57,0.00,,CLR,-99.99,VWS V14.01,2013-03-06 16:21:00,
2013-03-06 11:26:00,39.5,26.0,30.21,NE,45,1.0,0.0,58,0.00,,CLR,-99.99,VWS V14.01,2013-03-06 16:26:00,
2013-03-06 11:32:00,39.0,25.5,30.21,NNE,22,1.0,0.0,58,0.00,,CLR,-99.99,VWS V14.01,2013-03-06 16:32:00,
2013-03-06 11:37:00,38.4,24.9,30.20,ENE,68,1.0,0.0,58,0.00,,CLR,-99.99,VWS V14.01,2013-03-06 16:37:00,
2013-03-06 11:42:00,39.3,24.9,30.20,NE,45,1.0,0.0,56,0.00,,CLR,-99.99,VWS V14.01,2013-03-06 16:42:00,
2013-03-06 11:48:00,38.4,24.1,30.20,NE,45,9.0,9.0,56,0.00,,CLR,-99.99,VWS V14.01,2013-03-06 16:48:00,
2013-03-06 11:54:00,38.4,24.5,30.20,NNE,22,8.6,11.7,57,0.00,,CLR,-99.99,VWS V14.01,2013-03-06 16:54:00,
2013-03-06 12:00:00,38.3,24.0,30.20,NE,45,7.0,7.0,56,0.00,,CLR,-99.99,VWS V14.01,2013-03-06 17:00:00,
2013-03-06 12:05:00,38.4,24.9,30.20,East,90,8.6,8.6,58,0.00,,CLR,-99.99,VWS V14.01,2013-03-06 17:05:00,
2013-03-06 12:10:00,38.8,25.3,30.20,East,90,7.6,8.2,58,0.00,,CLR,-99.99,VWS V14.01,2013-03-06 17:10:00,
2013-03-06 12:15:00,39.0,25.5,30.20,East,90,10.3,10.3,58,0.00,,CLR,-99.99,VWS V14.01,2013-03-06 17:15:00,
2013-03-06 12:20:00,39.0,25.5,30.20,NE,45,5.6,9.9,58,0.00,,CLR,-99.99,VWS V14.01,2013-03-06 17:20:00,
2013-03-06 12:25:00,38.4,24.5,30.20,NE,45,11.6,11.6,57,0.00,,CLR,-99.99,VWS V14.01,2013-03-06 17:25:00,
2013-03-06 12:31:00,38.3,25.2,30.20,ENE,68,1.0,0.0,59,0.00,,CLR,-99.99,VWS V14.01,2013-03-06 17:31:00,
2013-03-06 12:36:00,37.5,23.7,30.20,ENE,68,19.5,19.7,57,0.00,,CLR,-99.99,VWS V14.01,2013-03-06 17:36:00,
2013-03-06 12:41:00,37.5,24.5,30.20,NE,45,17.0,17.1,59,0.00,,CLR,-99.99,VWS V14.01,2013-03-06 17:41:00,
2013-03-06 12:46:00,36.6,23.6,30.20,ENE,68,5.9,17.1,59,0.00,,CLR,-99.99,VWS V14.01,2013-03-06 17:46:00,
2013-03-06 12:52:00,36.8,24.2,30.20,ENE,68,3.6,3.6,60,0.00,,CLR,-99.99,VWS V14.01,2013-03-06 17:52:00,
2013-03-06 12:57:00,36.6,24.4,30.20,NE,45,5.4,5.4,61,0.00,,CLR,-99.99,VWS V14.01,2013-03-06 17:57:00,
2013-03-06 13:03:00,36.8,24.6,30.20,NE,45,6.2,14.6,61,0.00,,CLR,-99.99,VWS V14.01,2013-03-06 18:03:00,
2013-03-06 13:08:00,37.0,24.4,30.20,NE,45,13.3,13.3,60,0.00,,CLR,-99.99,VWS V14.01,2013-03-06 18:08:00,
2013-03-06 13:14:00,36.3,24.1,30.20,NE,45,1.0,13.1,61,0.00,,CLR,-99.99,VWS V14.01,2013-03-06 18:14:00,
2013-03-06 13:19:00,35.9,24.2,30.20,ENE,68,3.6,9.6,62,0.00,,CLR,-99.99,VWS V14.01,2013-03-06 18:19:00,
2013-03-06 13:25:00,36.3,24.5,30.20,ENE,68,10.6,10.6,62,0.00,,CLR,-99.99,VWS V14.01,2013-03-06 18:25:00,
2013-03-06 13:30:00,37.2,25.4,30.20,NE,45,4.0,5.3,62,0.00,,CLR,-99.99,VWS V14.01,2013-03-06 18:30:00,
2013-03-06 13:35:00,37.7,25.1,30.19,NE,45,4.3,7.0,60,0.00,,CLR,-99.99,VWS V14.01,2013-03-06 18:35:00,
2013-03-06 13:41:00,37.7,25.1,30.19,NE,45,4.3,4.3,60,0.00,,CLR,-99.99,VWS V14.01,2013-03-06 18:41:00,
2013-03-06 13:46:00,37.2,23.8,30.19,ENE,68,4.3,4.3,58,0.00,,CLR,-99.99,VWS V14.01,2013-03-06 18:46:00,
2013-03-06 13:51:00,36.5,23.5,30.19,NE,45,1.0,0.0,59,0.00,,CLR,-99.99,VWS V14.01,2013-03-06 18:51:00,
2013-03-06 13:57:00,36.3,23.4,30.19,NE,45,1.0,0.0,59,0.00,,CLR,-99.99,VWS V14.01,2013-03-06 18:57:00,
2013-03-06 14:03:00,36.6,23.6,30.19,NE,45,8.4,8.4,59,0.00,,CLR,-99.99,VWS V14.01,2013-03-06 19:03:00,
2013-03-06 14:08:00,37.0,23.6,30.18,ENE,68,1.0,0.0,58,0.00,,CLR,-99.99,VWS V14.01,2013-03-06 19:08:00,
2013-03-06 14:14:00,37.5,23.7,30.19,NE,45,5.6,5.6,57,0.00,,CLR,-99.99,VWS V14.01,2013-03-06 19:14:00,
2013-03-06 14:19:00,37.5,23.7,30.19,ESE,112,4.9,8.5,57,0.00,,CLR,-99.99,VWS V14.01,2013-03-06 19:19:00,
2013-03-06 14:24:00,37.5,23.7,30.19,NE,45,1.0,2.1,57,0.00,,CLR,-99.99,VWS V14.01,2013-03-06 19:24:00,
2013-03-06 14:30:00,38.1,23.8,30.19,NE,45,3.2,11.4,56,0.00,,CLR,-99.99,VWS V14.01,2013-03-06 19:30:00,
2013-03-06 14:35:00,37.5,23.2,30.19,ENE,68,7.9,7.9,56,0.00,,CLR,-99.99,VWS V14.01,2013-03-06 19:35:00,
2013-03-06 14:40:00,36.6,22.8,30.19,ENE,68,9.7,9.9,57,0.00,,CLR,-99.99,VWS V14.01,2013-03-06 19:40:00,
2013-03-06 14:45:00,36.6,22.8,30.19,East,90,1.0,9.6,57,0.00,,CLR,-99.99,VWS V14.01,2013-03-06 19:45:00,
2013-03-06 14:50:00,36.5,23.1,30.19,ENE,68,6.7,9.3,58,0.00,,CLR,-99.99,VWS V14.01,2013-03-06 19:50:00,
2013-03-06 14:55:00,36.3,23.0,30.19,NE,45,4.0,6.1,58,0.00,,CLR,-99.99,VWS V14.01,2013-03-06 19:55:00,
2013-03-06 15:00:00,36.8,23.8,30.19,NE,45,1.0,3.2,59,0.00,,CLR,-99.99,VWS V14.01,2013-03-06 20:00:00,
2013-03-06 15:05:00,37.9,24.9,30.19,East,90,4.9,4.9,59,0.00,,CLR,-99.99,VWS V14.01,2013-03-06 20:05:00,
2013-03-06 15:10:00,38.1,24.2,30.19,ENE,68,8.4,8.4,57,0.00,,CLR,-99.99,VWS V14.01,2013-03-06 20:10:00,
2013-03-06 15:15:00,37.5,23.2,30.19,NE,45,4.6,7.8,56,0.00,,CLR,-99.99,VWS V14.01,2013-03-06 20:15:00,
2013-03-06 15:20:00,37.2,23.8,30.19,NE,45,1.0,3.8,58,0.00,,CLR,-99.99,VWS V14.01,2013-03-06 20:20:00,
2013-03-06 15:25:00,37.0,23.2,30.19,NE,45,10.6,10.6,57,0.00,,CLR,-99.99,VWS V14.01,2013-03-06 20:25:00,
2013-03-06 15:30:00,36.3,23.0,30.19,ENE,68,7.9,10.2,58,0.00,,CLR,-99.99,VWS V14.01,2013-03-06 20:30:00,
2013-03-06 15:35:00,35.9,22.6,30.19,NE,45,4.3,9.9,58,0.00,,CLR,-99.99,VWS V14.01,2013-03-06 20:35:00,
2013-03-06 15:40:00,35.7,22.4,30.19,ENE,68,2.2,2.2,58,0.00,,CLR,-99.99,VWS V14.01,2013-03-06 20:40:00,
2013-03-06 15:46:00,35.7,23.2,30.19,NE,45,1.0,0.0,60,0.00,,CLR,-99.99,VWS V14.01,2013-03-06 20:46:00,
2013-03-06 15:51:00,35.9,23.4,30.19,NE,45,1.0,0.0,60,0.00,,CLR,-99.99,VWS V14.01,2013-03-06 20:51:00,
2013-03-06 15:57:00,35.7,23.6,30.19,NE,45,1.0,0.0,61,0.00,,CLR,-99.99,VWS V14.01,2013-03-06 20:57:00,
2013-03-06 16:02:00,35.2,23.5,30.19,NNE,22,7.0,7.0,62,0.00,,CLR,-99.99,VWS V14.01,2013-03-06 21:02:00,
2013-03-06 16:08:00,35.2,23.5,30.19,East,90,7.3,7.3,62,0.00,,CLR,-99.99,VWS V14.01,2013-03-06 21:08:00,
2013-03-06 16:14:00,35.2,23.9,30.20,ENE,68,1.0,0.0,63,0.00,,CLR,-99.99,VWS V14.01,2013-03-06 21:14:00,
2013-03-06 16:20:00,35.0,24.1,30.20,ENE,68,2.2,6.1,64,0.00,,CLR,-99.99,VWS V14.01,2013-03-06 21:20:00,
2013-03-06 16:25:00,34.8,23.9,30.20,ENE,68,3.2,3.2,64,0.00,,CLR,-99.99,VWS V14.01,2013-03-06 21:25:00,
2013-03-06 16:30:00,34.8,23.9,30.20,NE,45,1.0,2.4,64,0.00,,CLR,-99.99,VWS V14.01,2013-03-06 21:30:00,
2013-03-06 16:35:00,35.2,24.3,30.20,NE,45,1.0,0.0,64,0.00,,CLR,-99.99,VWS V14.01,2013-03-06 21:35:00,
2013-03-06 16:41:00,34.8,23.9,30.20,ENE,68,1.0,0.0,64,0.00,,CLR,-99.99,VWS V14.01,2013-03-06 21:41:00,
2013-03-06 16:46:00,34.8,23.9,30.20,ENE,68,5.6,5.6,64,0.00,,CLR,-99.99,VWS V14.01,2013-03-06 21:46:00,
2013-03-06 16:51:00,34.5,23.2,30.19,NNE,22,1.0,0.0,63,0.00,,CLR,-99.99,VWS V14.01,2013-03-06 21:51:00,
2013-03-06 16:56:00,34.3,23.0,30.19,SSE,158,9.2,10.7,63,0.00,,CLR,-99.99,VWS V14.01,2013-03-06 21:56:00,
2013-03-06 17:01:00,34.3,23.4,30.20,ESE,112,6.7,6.7,64,0.00,,CLR,-99.99,VWS V14.01,2013-03-06 22:01:00,
2013-03-06 17:06:00,34.3,23.4,30.20,ENE,68,5.4,5.4,64,0.00,,CLR,-99.99,VWS V14.01,2013-03-06 22:06:00,
2013-03-06 17:12:00,33.9,23.0,30.20,ESE,112,8.6,8.6,64,0.00,,CLR,-99.99,VWS V14.01,2013-03-06 22:12:00,
2013-03-06 17:18:00,33.8,22.9,30.20,NE,45,1.0,1.8,64,0.00,,CLR,-99.99,VWS V14.01,2013-03-06 22:18:00,
2013-03-06 17:24:00,33.6,23.1,30.20,ESE,112,4.9,4.9,65,0.00,,CLR,-99.99,VWS V14.01,2013-03-06 22:24:00,
2013-03-06 17:30:00,33.4,23.3,30.20,NE,45,8.6,10.7,66,0.00,,CLR,-99.99,VWS V14.01,2013-03-06 22:30:00,
2013-03-06 17:35:00,33.4,23.6,30.20,NE,45,11.0,11.0,67,0.00,,CLR,-99.99,VWS V14.01,2013-03-06 22:35:00,
2013-03-06 17:40:00,33.0,23.6,30.20,NE,45,3.6,6.1,68,0.00,,CLR,-99.99,VWS V14.01,2013-03-06 22:40:00,
2013-03-06 17:45:00,32.9,23.5,30.20,NE,45,1.0,5.0,68,0.00,,CLR,-99.99,VWS V14.01,2013-03-06 22:45:00,
2013-03-06 17:50:00,32.7,23.3,30.20,ESE,112,1.9,1.9,68,0.00,,CLR,-99.99,VWS V14.01,2013-03-06 22:50:00,
2013-03-06 17:55:00,32.5,23.5,30.20,ENE,68,1.0,1.3,69,0.00,,CLR,-99.99,VWS V14.01,2013-03-06 22:55:00,
2013-03-06 18:00:00,32.3,23.3,30.20,NE,45,1.0,8.8,69,0.00,,CLR,-99.99,VWS V14.01,2013-03-06 23:00:00,
2013-03-06 18:06:00,32.1,23.4,30.20,ENE,68,1.0,0.0,70,0.00,,CLR,-99.99,VWS V14.01,2013-03-06 23:06:00,
2013-03-06 18:11:00,32.0,23.3,30.21,ENE,68,1.0,0.0,70,0.00,,CLR,-99.99,VWS V14.01,2013-03-06 23:11:00,
2013-03-06 18:16:00,31.8,23.1,30.21,ENE,68,1.0,0.0,70,0.00,,CLR,-99.99,VWS V14.01,2013-03-06 23:16:00,
2013-03-06 18:21:00,31.6,23.0,30.21,ENE,68,1.0,0.0,70,0.00,,CLR,-99.99,VWS V14.01,2013-03-06 23:21:00,
2013-03-06 18:26:00,31.6,23.0,30.21,ENE,68,1.0,0.0,70,0.00,,CLR,-99.99,VWS V14.01,2013-03-06 23:26:00,
2013-03-06 18:31:00,31.2,22.9,30.21,East,90,5.6,5.6,71,0.00,,CLR,-99.99,VWS V14.01,2013-03-06 23:31:00,
2013-03-06 18:36:00,31.2,22.9,30.21,ENE,68,1.0,0.0,71,0.00,,CLR,-99.99,VWS V14.01,2013-03-06 23:36:00,
2013-03-06 18:42:00,31.2,23.2,30.22,ENE,68,1.0,0.0,72,0.00,,CLR,-99.99,VWS V14.01,2013-03-06 23:42:00,
2013-03-06 18:47:00,31.2,23.2,30.21,ENE,68,1.0,0.0,72,0.00,,CLR,-99.99,VWS V14.01,2013-03-06 23:47:00,
2013-03-06 18:53:00,31.2,23.2,30.21,NE,45,4.6,4.6,72,0.00,,CLR,-99.99,VWS V14.01,2013-03-06 23:53:00,
2013-03-06 18:58:00,31.2,23.2,30.22,NE,45,1.0,0.0,72,0.00,,CLR,-99.99,VWS V14.01,2013-03-06 23:58:00,
2013-03-06 19:03:00,31.2,23.2,30.22,NE,45,1.0,0.0,72,0.00,,CLR,-99.99,VWS V14.01,2013-03-07 00:03:00,
2013-03-06 19:08:00,31.2,23.2,30.22,NE,45,1.0,0.0,72,0.00,,CLR,-99.99,VWS V14.01,2013-03-07 00:08:00,
2013-03-06 19:13:00,31.2,23.2,30.22,NE,45,1.0,0.0,72,0.00,,CLR,-99.99,VWS V14.01,2013-03-07 00:13:00,
2013-03-06 19:18:00,31.2,23.2,30.21,NE,45,1.0,0.0,72,0.00,,CLR,-99.99,VWS V14.01,2013-03-07 00:18:00,
2013-03-06 19:23:00,31.2,23.6,30.21,NE,45,1.0,0.0,73,0.00,,CLR,-99.99,VWS V14.01,2013-03-07 00:23:00,
2013-03-06 19:28:00,31.2,23.6,30.22,NE,45,1.0,0.0,73,0.00,,CLR,-99.99,VWS V14.01,2013-03-07 00:28:00,
2013-03-06 19:34:00,31.2,23.6,30.22,ENE,68,1.0,0.0,73,0.00,,CLR,-99.99,VWS V14.01,2013-03-07 00:34:00,
2013-03-06 19:39:00,31.2,23.6,30.22,ENE,68,2.7,7.4,73,0.00,,CLR,-99.99,VWS V14.01,2013-03-07 00:39:00,
2013-03-06 19:44:00,31.2,23.6,30.22,ENE,68,1.0,0.0,73,0.00,,CLR,-99.99,VWS V14.01,2013-03-07 00:44:00,
2013-03-06 19:49:00,31.1,23.1,30.22,ENE,68,6.7,6.7,72,0.00,,CLR,-99.99,VWS V14.01,2013-03-07 00:49:00,
2013-03-06 19:55:00,31.1,23.1,30.22,East,90,8.4,8.4,72,0.00,,CLR,-99.99,VWS V14.01,2013-03-07 00:55:00,
2013-03-06 20:00:00,31.1,23.1,30.22,NE,45,1.0,0.0,72,0.00,,CLR,-99.99,VWS V14.01,2013-03-07 01:00:00,
2013-03-06 20:05:00,30.9,23.0,30.22,ENE,68,1.0,0.0,72,0.00,,CLR,-99.99,VWS V14.01,2013-03-07 01:05:00,
2013-03-06 20:10:00,30.9,23.0,30.23,ENE,68,1.0,0.0,72,0.00,,CLR,-99.99,VWS V14.01,2013-03-07 01:10:00,
2013-03-06 20:15:00,30.9,23.0,30.22,ENE,68,1.0,0.0,72,0.00,,CLR,-99.99,VWS V14.01,2013-03-07 01:15:00,
2013-03-06 20:21:00,30.9,23.0,30.22,NE,45,1.0,0.0,72,0.00,,CLR,-99.99,VWS V14.01,2013-03-07 01:21:00,
2013-03-06 20:27:00,30.7,23.1,30.22,ESE,112,1.0,0.0,73,0.00,,CLR,-99.99,VWS V14.01,2013-03-07 01:27:00,
2013-03-06 20:33:00,30.7,22.8,30.22,ENE,68,7.0,7.0,72,0.00,,CLR,-99.99,VWS V14.01,2013-03-07 01:33:00,
2013-03-06 20:38:00,30.3,22.4,30.22,ESE,112,1.0,3.2,72,0.00,,CLR,-99.99,VWS V14.01,2013-03-07 01:38:00,
2013-03-06 20:43:00,30.3,22.7,30.22,South,180,1.0,3.2,73,0.00,,CLR,-99.99,VWS V14.01,2013-03-07 01:43:00,
2013-03-06 20:48:00,30.3,22.7,30.22,ENE,68,7.6,7.6,73,0.00,,CLR,-99.99,VWS V14.01,2013-03-07 01:48:00,
2013-03-06 20:53:00,30.3,22.4,30.22,ENE,68,1.0,0.0,72,0.00,,CLR,-99.99,VWS V14.01,2013-03-07 01:53:00,
2013-03-06 20:58:00,30.3,22.4,30.22,ENE,68,1.0,8.2,72,0.00,,CLR,-99.99,VWS V14.01,2013-03-07 01:58:00,
2013-03-06 21:04:00,30.2,22.3,30.22,ESE,112,1.0,0.0,72,0.00,,CLR,-99.99,VWS V14.01,2013-03-07 02:04:00,
2013-03-06 21:09:00,30.2,22.3,30.21,NE,45,4.6,4.6,72,0.00,,CLR,-99.99,VWS V14.01,2013-03-07 02:09:00,
2013-03-06 21:15:00,30.2,22.3,30.21,SE,135,7.0,7.0,72,0.00,,CLR,-99.99,VWS V14.01,2013-03-07 02:15:00,
2013-03-06 21:20:00,30.2,21.9,30.21,NE,45,1.0,6.4,71,0.00,,CLR,-99.99,VWS V14.01,2013-03-07 02:20:00,
2013-03-06 21:25:00,30.0,21.8,30.21,NE,45,1.9,7.4,71,0.00,,CLR,-99.99,VWS V14.01,2013-03-07 02:25:00,
2013-03-06 21:30:00,30.0,22.1,30.21,ENE,68,1.0,0.0,72,0.00,,CLR,-99.99,VWS V14.01,2013-03-07 02:30:00,
2013-03-06 21:35:00,30.0,22.1,30.21,ESE,112,1.0,3.5,72,0.00,,CLR,-99.99,VWS V14.01,2013-03-07 02:35:00,
2013-03-06 21:40:00,30.0,22.1,30.21,ENE,68,1.0,5.0,72,0.00,,CLR,-99.99,VWS V14.01,2013-03-07 02:40:00,
2013-03-06 21:46:00,30.0,22.4,30.21,ENE,68,1.0,0.0,73,0.00,,CLR,-99.99,VWS V14.01,2013-03-07 02:46:00,
2013-03-06 21:51:00,30.0,22.4,30.20,SE,135,1.0,0.0,73,0.00,,CLR,-99.99,VWS V14.01,2013-03-07 02:51:00,
2013-03-06 21:56:00,30.0,22.4,30.20,SE,135,1.0,0.0,73,0.00,,CLR,-99.99,VWS V14.01,2013-03-07 02:56:00,
2013-03-06 22:02:00,30.0,22.4,30.20,SE,135,1.0,0.0,73,0.00,,CLR,-99.99,VWS V14.01,2013-03-07 03:02:00,
2013-03-06 22:08:00,29.8,22.2,30.20,SE,135,1.0,0.0,73,0.00,,CLR,-99.99,VWS V14.01,2013-03-07 03:08:00,
2013-03-06 22:14:00,29.8,22.2,30.20,SE,135,1.0,0.0,73,0.00,,CLR,-99.99,VWS V14.01,2013-03-07 03:14:00,
2013-03-06 22:19:00,29.8,22.2,30.20,SE,135,1.0,0.0,73,0.00,,CLR,-99.99,VWS V14.01,2013-03-07 03:19:00,
2013-03-06 22:24:00,29.6,22.0,30.21,ESE,112,5.6,5.6,73,0.00,,CLR,-99.99,VWS V14.01,2013-03-07 03:24:00,
2013-03-06 22:29:00,29.6,22.0,30.21,ENE,68,7.0,7.0,73,0.00,,CLR,-99.99,VWS V14.01,2013-03-07 03:29:00,
2013-03-06 22:35:00,29.4,21.8,30.21,NE,45,1.0,6.4,73,0.00,,CLR,-99.99,VWS V14.01,2013-03-07 03:35:00,
2013-03-06 22:40:00,29.3,21.7,30.21,NE,45,1.0,0.0,73,0.00,,CLR,-99.99,VWS V14.01,2013-03-07 03:40:00,
2013-03-06 22:45:00,29.3,22.1,30.21,NE,45,1.0,0.0,74,0.00,,CLR,-99.99,VWS V14.01,2013-03-07 03:45:00,
2013-03-06 22:50:00,29.3,22.1,30.21,NE,45,1.0,0.0,74,0.00,,CLR,-99.99,VWS V14.01,2013-03-07 03:50:00,
2013-03-06 22:56:00,29.3,22.1,30.21,NE,45,1.0,0.0,74,0.00,,CLR,-99.99,VWS V14.01,2013-03-07 03:56:00,
2013-03-06 23:02:00,29.1,22.2,30.21,ENE,68,1.0,6.1,75,0.00,,CLR,-99.99,VWS V14.01,2013-03-07 04:02:00,
2013-03-06 23:07:00,29.1,22.2,30.20,ESE,112,9.2,9.2,75,0.00,,CLR,-99.99,VWS V14.01,2013-03-07 04:07:00,
2013-03-06 23:13:00,29.1,22.2,30.20,NE,45,2.7,2.7,75,0.00,,CLR,-99.99,VWS V14.01,2013-03-07 04:13:00,
2013-03-06 23:19:00,29.1,21.9,30.20,NE,45,4.6,8.5,74,0.00,,CLR,-99.99,VWS V14.01,2013-03-07 04:19:00,
2013-03-06 23:24:00,29.1,21.9,30.20,ESE,112,1.0,0.0,74,0.00,,CLR,-99.99,VWS V14.01,2013-03-07 04:24:00,
2013-03-06 23:30:00,28.9,21.4,30.20,NNE,22,4.6,4.6,73,0.00,,CLR,-99.99,VWS V14.01,2013-03-07 04:30:00,
2013-03-06 23:35:00,28.9,21.7,30.21,NE,45,1.9,3.8,74,0.00,,CLR,-99.99,VWS V14.01,2013-03-07 04:35:00,
2013-03-06 23:40:00,28.9,21.0,30.21,ENE,68,7.0,7.8,72,0.00,,CLR,-99.99,VWS V14.01,2013-03-07 04:40:00,
2013-03-06 23:46:00,28.7,20.8,30.21,ESE,112,1.6,1.6,72,0.00,,CLR,-99.99,VWS V14.01,2013-03-07 04:46:00,
2013-03-06 23:51:00,28.7,20.8,30.21,East,90,10.6,10.6,72,0.00,,CLR,-99.99,VWS V14.01,2013-03-07 04:51:00,
2013-03-06 23:57:00,28.7,20.2,30.21,ENE,68,8.4,8.4,70,0.00,,CLR,-99.99,VWS V14.01,2013-03-07 04:57:00,